Time;durP1;ratioP1;P1;durP2;ratioP2;P2;SDS_P1;SDS_P2;PMS_P1;PMS_P2;Temp;Humidity;BMP_temperature;BMP_pressure;BME280_temperature;BME280_humidity;BME280_pressure;Samples;Min_cycle;Max_cycle;Signal;HPM_P1;HPM_P2
2023/12/27 00:00:36;;;;;;;5.95;2.60;;;;;;;;;;5004677;28;20033;-81
2023/12/27 00:03:02;;;;;;;5.88;2.85;;;;;;;;;;5002328;28;20062;-80
2023/12/27 00:05:28;;;;;;;4.43;2.60;;;;;;;;;;5009416;28;20038;-81
2023/12/27 00:07:54;;;;;;;5.13;2.35;;;;;;;;;;5000276;28;20065;-78
2023/12/27 00:10:20;;;;;;;8.07;2.63;;;;;;;;;;5007118;28;20068;-81
2023/12/27 00:12:46;;;;;;;4.07;1.88;;;;;;;;;;5006147;28;20037;-80
2023/12/27 00:15:12;;;;;;;2.88;1.67;;;;;;;;;;4987480;28;20025;-80
2023/12/27 00:17:38;;;;;;;5.28;2.75;;;;;;;;;;4990091;28;20038;-80
2023/12/27 00:20:04;;;;;;;9.43;2.47;;;;;;;;;;5000488;28;20040;-80
2023/12/27 00:22:30;;;;;;;6.43;3.05;;;;;;;;;;5008470;28;20376;-80
2023/12/27 00:24:56;;;;;;;4.65;2.15;;;;;;;;;;5002108;28;20033;-79
2023/12/27 00:27:22;;;;;;;6.72;2.72;;;;;;;;;;5003963;28;20037;-81
2023/12/27 00:29:48;;;;;;;3.13;2.30;;;;;;;;;;5001046;28;20391;-78
2023/12/27 00:32:15;;;;;;;5.13;2.90;;;;;;;;;;5001890;28;20373;-80
2023/12/27 00:34:41;;;;;;;8.35;3.95;;;;;;;;;;4999355;28;20050;-79
2023/12/27 00:37:08;;;;;;;6.95;2.38;;;;;;;;;;5006662;28;21199;-80
2023/12/27 00:39:34;;;;;;;5.20;3.15;;;;;;;;;;5005281;28;20518;-78
2023/12/27 00:42:00;;;;;;;5.32;3.17;;;;;;;;;;5003623;28;20156;-81
2023/12/27 00:44:26;;;;;;;5.13;2.53;;;;;;;;;;5003192;28;20029;-81
2023/12/27 00:46:52;;;;;;;5.20;2.47;;;;;;;;;;4988106;28;20026;-79
2023/12/27 00:49:18;;;;;;;6.43;2.80;;;;;;;;;;5007870;28;20058;-80
2023/12/27 00:51:44;;;;;;;3.85;2.30;;;;;;;;;;5001924;28;20126;-80
2023/12/27 00:54:10;;;;;;;5.38;2.97;;;;;;;;;;4994902;28;20102;-76
2023/12/27 00:56:36;;;;;;;7.38;2.67;;;;;;;;;;5004576;28;20421;-80
2023/12/27 00:59:02;;;;;;;5.97;2.90;;;;;;;;;;5004255;28;20042;-80
2023/12/27 01:01:30;;;;;;;4.68;2.53;;;;;;;;;;5004935;28;20030;-79
2023/12/27 01:03:56;;;;;;;5.82;2.78;;;;;;;;;;5003345;28;20072;-81
2023/12/27 01:06:22;;;;;;;8.63;2.60;;;;;;;;;;5006125;28;20049;-81
2023/12/27 01:08:48;;;;;;;12.52;3.20;;;;;;;;;;4995575;28;20029;-81
2023/12/27 01:11:14;;;;;;;7.20;3.40;;;;;;;;;;5003469;28;20057;-79
2023/12/27 01:13:40;;;;;;;5.13;2.35;;;;;;;;;;4979430;28;20028;-79
2023/12/27 01:16:06;;;;;;;5.60;2.72;;;;;;;;;;5004756;28;20402;-81
2023/12/27 01:18:32;;;;;;;6.50;3.15;;;;;;;;;;5002048;28;20045;-81
2023/12/27 01:20:58;;;;;;;11.43;2.97;;;;;;;;;;5002113;28;20103;-80
2023/12/27 01:23:24;;;;;;;7.82;3.65;;;;;;;;;;4999875;28;20073;-79
2023/12/27 01:25:50;;;;;;;15.82;3.55;;;;;;;;;;5004012;28;20029;-80
2023/12/27 01:28:21;;;;;;;6.95;3.28;;;;;;;;;;4995415;28;20034;-80
2023/12/27 01:30:48;;;;;;;5.03;2.90;;;;;;;;;;5001772;28;20724;-79
2023/12/27 01:33:13;;;;;;;13.13;3.25;;;;;;;;;;5003421;28;20037;-78
2023/12/27 01:35:40;;;;;;;6.30;3.00;;;;;;;;;;5002309;28;20033;-80
2023/12/27 01:38:06;;;;;;;6.85;2.75;;;;;;;;;;5000056;28;20026;-78
2023/12/27 01:40:59;;;;;;;7.82;2.70;;;;;;;;;;5003775;28;20075;-79
2023/12/27 01:43:25;;;;;;;11.45;3.55;;;;;;;;;;4998389;28;20060;-80
2023/12/27 01:45:51;;;;;;;6.50;2.55;;;;;;;;;;5003163;28;20493;-79
2023/12/27 01:48:21;;;;;;;7.22;2.97;;;;;;;;;;5000488;28;20164;-80
2023/12/27 01:50:48;;;;;;;6.53;2.55;;;;;;;;;;5002643;28;20064;-79
2023/12/27 01:53:14;;;;;;;4.60;2.38;;;;;;;;;;5000438;28;20033;-78
2023/12/27 01:55:40;;;;;;;6.45;3.22;;;;;;;;;;4985316;28;20632;-80
2023/12/27 01:58:08;;;;;;;7.85;2.78;;;;;;;;;;5000607;28;20017;-78
2023/12/27 02:00:37;;;;;;;7.45;2.83;;;;;;;;;;5004188;28;20486;-78
2023/12/27 02:03:03;;;;;;;6.18;2.47;;;;;;;;;;4998804;28;20479;-80
2023/12/27 02:05:30;;;;;;;6.63;2.75;;;;;;;;;;4995049;28;20038;-80
2023/12/27 02:07:57;;;;;;;5.70;2.35;;;;;;;;;;4993886;28;20455;-77
2023/12/27 02:10:23;;;;;;;4.03;2.10;;;;;;;;;;4998251;28;20053;-79
2023/12/27 02:12:49;;;;;;;3.30;2.13;;;;;;;;;;5002418;28;20072;-79
2023/12/27 02:15:15;;;;;;;4.85;2.70;;;;;;;;;;5003575;28;20033;-80
2023/12/27 02:17:42;;;;;;;5.90;2.58;;;;;;;;;;5005046;28;20030;-78
2023/12/27 02:20:09;;;;;;;6.80;3.20;;;;;;;;;;4997753;28;20026;-78
2023/12/27 02:22:36;;;;;;;5.60;2.95;;;;;;;;;;5005220;28;20461;-78
2023/12/27 02:25:02;;;;;;;4.93;1.73;;;;;;;;;;4983494;28;20062;-79
2023/12/27 02:27:28;;;;;;;5.80;2.67;;;;;;;;;;5001865;28;20049;-79
2023/12/27 02:29:54;;;;;;;9.40;2.63;;;;;;;;;;4999101;28;20470;-79
2023/12/27 02:32:20;;;;;;;6.07;2.15;;;;;;;;;;4999602;28;20071;-78
2023/12/27 02:34:46;;;;;;;5.85;1.75;;;;;;;;;;5003464;28;20056;-79
2023/12/27 02:37:12;;;;;;;7.55;2.00;;;;;;;;;;5004038;28;20030;-79
2023/12/27 02:39:37;;;;;;;3.65;2.00;;;;;;;;;;4995083;28;20030;-78
2023/12/27 02:42:03;;;;;;;5.03;1.92;;;;;;;;;;5003069;28;20430;-78
2023/12/27 02:44:29;;;;;;;4.30;1.90;;;;;;;;;;4998372;28;20042;-79
2023/12/27 02:46:56;;;;;;;7.40;2.65;;;;;;;;;;5004606;28;20847;-79
2023/12/27 02:49:22;;;;;;;6.50;2.53;;;;;;;;;;4994302;28;20034;-78
2023/12/27 02:51:48;;;;;;;4.65;2.05;;;;;;;;;;5004015;28;20034;-79
2023/12/27 02:54:14;;;;;;;3.78;1.80;;;;;;;;;;5001214;28;20030;-79
2023/12/27 02:56:40;;;;;;;4.90;2.25;;;;;;;;;;4988822;28;20025;-78
2023/12/27 02:59:08;;;;;;;2.60;1.45;;;;;;;;;;5000220;28;20176;-78
2023/12/27 03:01:34;;;;;;;3.30;1.77;;;;;;;;;;5003143;28;20048;-78
2023/12/27 03:04:03;;;;;;;5.72;2.22;;;;;;;;;;5000388;28;20405;-77
2023/12/27 03:06:31;;;;;;;4.85;1.90;;;;;;;;;;5002662;28;20049;-79
2023/12/27 03:08:57;;;;;;;10.98;2.47;;;;;;;;;;4990883;28;20654;-79
2023/12/27 03:11:23;;;;;;;5.18;2.10;;;;;;;;;;4993020;28;20460;-78
2023/12/27 03:13:49;;;;;;;5.03;2.67;;;;;;;;;;5000747;28;20037;-79
2023/12/27 03:16:18;;;;;;;8.90;1.83;;;;;;;;;;5002087;28;20378;-79
2023/12/27 03:18:44;;;;;;;6.10;2.35;;;;;;;;;;5003081;28;20026;-79
2023/12/27 03:21:25;;;;;;;6.25;2.38;;;;;;;;;;5004609;28;20489;-77
2023/12/27 03:23:51;;;;;;;5.63;1.92;;;;;;;;;;5000434;28;20092;-78
2023/12/27 03:26:17;;;;;;;2.60;1.50;;;;;;;;;;4987818;28;20077;-80
2023/12/27 03:28:43;;;;;;;3.92;2.03;;;;;;;;;;5003784;28;20033;-79
2023/12/27 03:31:09;;;;;;;4.88;2.17;;;;;;;;;;5006558;28;20029;-80
2023/12/27 03:33:35;;;;;;;6.72;2.40;;;;;;;;;;5002260;28;20116;-79
2023/12/27 03:36:01;;;;;;;5.03;2.03;;;;;;;;;;5005941;28;20386;-79
2023/12/27 03:38:27;;;;;;;6.22;2.47;;;;;;;;;;4996642;28;20045;-78
2023/12/27 03:40:53;;;;;;;7.05;2.92;;;;;;;;;;5007921;28;20037;-79
2023/12/27 03:43:19;;;;;;;6.90;2.15;;;;;;;;;;4987847;28;20088;-80
2023/12/27 03:45:45;;;;;;;11.98;2.35;;;;;;;;;;5006221;28;20030;-80
2023/12/27 03:48:11;;;;;;;3.13;1.60;;;;;;;;;;5002855;28;20576;-79
2023/12/27 03:50:37;;;;;;;3.28;1.45;;;;;;;;;;5005643;28;20041;-80
2023/12/27 03:53:03;;;;;;;3.70;1.85;;;;;;;;;;5003613;28;20124;-80
2023/12/27 03:55:29;;;;;;;6.07;2.88;;;;;;;;;;4984237;28;20037;-80
2023/12/27 03:57:55;;;;;;;5.85;1.30;;;;;;;;;;5003662;28;20025;-80
2023/12/27 04:00:21;;;;;;;4.25;2.00;;;;;;;;;;5002924;28;20498;-81
2023/12/27 04:02:47;;;;;;;6.05;1.92;;;;;;;;;;5004977;28;20036;-77
2023/12/27 04:05:13;;;;;;;3.25;1.67;;;;;;;;;;5001297;28;20529;-79
2023/12/27 04:07:39;;;;;;;6.57;1.92;;;;;;;;;;5000462;28;20034;-80
2023/12/27 04:10:06;;;;;;;4.60;1.92;;;;;;;;;;4994849;28;20501;-79
2023/12/27 04:12:32;;;;;;;5.53;1.42;;;;;;;;;;4987039;28;20029;-79
2023/12/27 04:14:58;;;;;;;4.53;1.55;;;;;;;;;;5005123;28;20072;-79
2023/12/27 04:17:25;;;;;;;3.97;2.38;;;;;;;;;;4998265;28;20553;-78
2023/12/27 04:22:36;;;;;;;2.80;1.30;;;;;;;;;;5019636;28;20072;-80
2023/12/27 04:25:03;;;;;;;2.80;1.33;;;;;;;;;;5001716;28;20113;-77
2023/12/27 04:27:29;;;;;;;8.27;2.22;;;;;;;;;;5003142;28;20518;-80
2023/12/27 04:29:55;;;;;;;3.75;1.38;;;;;;;;;;5000534;28;20060;-80
2023/12/27 04:32:21;;;;;;;5.35;2.30;;;;;;;;;;5003257;28;20410;-79
2023/12/27 04:34:46;;;;;;;5.63;2.30;;;;;;;;;;5003142;28;20068;-79
2023/12/27 04:37:13;;;;;;;10.15;1.95;;;;;;;;;;4999797;28;20063;-78
2023/12/27 04:39:38;;;;;;;4.15;2.05;;;;;;;;;;5004615;28;20041;-80
2023/12/27 04:42:05;;;;;;;5.07;2.22;;;;;;;;;;5003869;28;20402;-79
2023/12/27 04:44:31;;;;;;;4.00;2.10;;;;;;;;;;4997600;28;20053;-78
2023/12/27 04:46:57;;;;;;;3.13;1.63;;;;;;;;;;5018415;28;20021;-76
2023/12/27 04:49:22;;;;;;;4.75;1.88;;;;;;;;;;5023022;28;20034;-77
2023/12/27 04:51:48;;;;;;;6.72;2.15;;;;;;;;;;5023173;28;20097;-76
2023/12/27 04:54:14;;;;;;;7.45;2.95;;;;;;;;;;5010889;28;20448;-79
2023/12/27 04:56:40;;;;;;;13.73;3.70;;;;;;;;;;5002007;28;20072;-79
2023/12/27 04:59:06;;;;;;;11.50;3.30;;;;;;;;;;4997004;28;20486;-78
2023/12/27 05:01:32;;;;;;;9.20;2.83;;;;;;;;;;4977319;28;20096;-77
2023/12/27 05:03:58;;;;;;;4.60;1.70;;;;;;;;;;5007590;28;20033;-79
2023/12/27 05:06:24;;;;;;;3.75;2.17;;;;;;;;;;5000651;28;20048;-80
2023/12/27 05:08:50;;;;;;;8.85;1.60;;;;;;;;;;5000988;28;20108;-80
2023/12/27 05:11:19;;;;;;;6.15;2.13;;;;;;;;;;5007356;28;20032;-79
2023/12/27 05:14:05;;;;;;;6.80;2.65;;;;;;;;;;5001972;28;20033;-79
2023/12/27 05:16:31;;;;;;;5.72;2.05;;;;;;;;;;4997713;28;20038;-77
2023/12/27 05:18:57;;;;;;;11.02;1.65;;;;;;;;;;4999998;28;20029;-78
2023/12/27 05:21:23;;;;;;;4.18;2.25;;;;;;;;;;4991735;28;20025;-80
2023/12/27 05:23:49;;;;;;;2.78;1.65;;;;;;;;;;5007818;28;20056;-79
2023/12/27 05:26:15;;;;;;;5.05;2.38;;;;;;;;;;5006589;28;20037;-80
2023/12/27 05:28:41;;;;;;;6.18;2.38;;;;;;;;;;4999418;28;20044;-78
2023/12/27 05:31:07;;;;;;;6.20;2.28;;;;;;;;;;4999248;28;20565;-79
2023/12/27 05:33:33;;;;;;;3.10;1.60;;;;;;;;;;4995884;28;20030;-78
2023/12/27 05:35:59;;;;;;;3.30;1.88;;;;;;;;;;5007223;28;20021;-78
2023/12/27 05:38:25;;;;;;;5.88;2.47;;;;;;;;;;4997996;28;20117;-80
2023/12/27 05:40:51;;;;;;;7.32;2.67;;;;;;;;;;5006606;28;20026;-80
2023/12/27 05:43:17;;;;;;;7.05;3.17;;;;;;;;;;5003419;28;20137;-79
2023/12/27 05:45:43;;;;;;;6.80;2.85;;;;;;;;;;4997887;28;20057;-80
2023/12/27 05:48:09;;;;;;;5.35;1.73;;;;;;;;;;4998894;28;20042;-80
2023/12/27 05:50:35;;;;;;;4.80;2.28;;;;;;;;;;4987550;28;20184;-80
2023/12/27 05:53:01;;;;;;;5.10;1.85;;;;;;;;;;4998021;28;20030;-78
2023/12/27 05:55:26;;;;;;;4.40;2.35;;;;;;;;;;5004429;28;20026;-79
2023/12/27 05:57:52;;;;;;;5.50;2.55;;;;;;;;;;5005321;28;20514;-79
2023/12/27 06:00:18;;;;;;;4.82;2.22;;;;;;;;;;4995452;28;20034;-78
2023/12/27 06:02:44;;;;;;;4.97;2.20;;;;;;;;;;4999312;28;20049;-80
2023/12/27 06:05:10;;;;;;;6.68;3.10;;;;;;;;;;4998755;28;20239;-79
2023/12/27 06:07:56;;;;;;;4.63;2.15;;;;;;;;;;5003489;28;20028;-80
2023/12/27 06:10:26;;;;;;;3.53;2.63;;;;;;;;;;5002517;28;20061;-80
2023/12/27 06:12:52;;;;;;;6.82;2.90;;;;;;;;;;5001294;28;20022;-78
2023/12/27 06:15:18;;;;;;;6.75;2.65;;;;;;;;;;5005874;28;20536;-79
2023/12/27 06:17:44;;;;;;;8.88;4.55;;;;;;;;;;4993399;28;20034;-80
2023/12/27 06:20:10;;;;;;;6.35;3.17;;;;;;;;;;4996546;28;20057;-79
2023/12/27 06:22:36;;;;;;;7.95;3.25;;;;;;;;;;4999304;28;20084;-79
2023/12/27 06:25:14;;;;;;;28.38;11.05;;;;;;;;;;4998916;28;20508;-79
2023/12/27 06:27:40;;;;;;;37.53;12.20;;;;;;;;;;5004293;28;20024;-80
2023/12/27 06:30:08;;;;;;;31.17;12.63;;;;;;;;;;5002650;28;20030;-78
2023/12/27 06:32:34;;;;;;;27.60;11.25;;;;;;;;;;5004045;28;20093;-78
2023/12/27 06:35:00;;;;;;;51.65;22.60;;;;;;;;;;4994071;28;20449;-77
2023/12/27 06:37:25;;;;;;;42.83;15.02;;;;;;;;;;4981999;28;20037;-80
2023/12/27 06:39:51;;;;;;;35.22;16.23;;;;;;;;;;4989664;28;20042;-78
2023/12/27 06:42:17;;;;;;;14.85;6.93;;;;;;;;;;5005157;28;20053;-78
2023/12/27 06:44:43;;;;;;;11.20;6.03;;;;;;;;;;5001836;28;20052;-78
2023/12/27 06:47:09;;;;;;;11.52;4.22;;;;;;;;;;5004359;28;20042;-79
2023/12/27 06:49:35;;;;;;;6.82;3.58;;;;;;;;;;5001724;28;20088;-78
2023/12/27 06:52:01;;;;;;;8.20;3.63;;;;;;;;;;5007162;28;20057;-78
2023/12/27 06:54:27;;;;;;;7.22;3.10;;;;;;;;;;5000641;28;20132;-78
2023/12/27 06:56:53;;;;;;;5.10;2.90;;;;;;;;;;5005269;28;20410;-80
2023/12/27 06:59:19;;;;;;;15.73;4.00;;;;;;;;;;5005419;28;20774;-80
2023/12/27 07:01:45;;;;;;;13.40;5.80;;;;;;;;;;5002472;28;20617;-79
2023/12/27 07:04:11;;;;;;;15.45;6.88;;;;;;;;;;5002495;28;20378;-78
2023/12/27 07:06:38;;;;;;;12.60;5.75;;;;;;;;;;5005050;28;20045;-80
2023/12/27 07:09:04;;;;;;;9.85;5.22;;;;;;;;;;4996762;28;20048;-79
2023/12/27 07:11:30;;;;;;;23.17;9.63;;;;;;;;;;4999072;28;20038;-79
2023/12/27 07:13:57;;;;;;;39.67;16.38;;;;;;;;;;5004073;28;20026;-79
2023/12/27 07:16:23;;;;;;;36.72;14.27;;;;;;;;;;5009195;28;20034;-79
2023/12/27 07:18:49;;;;;;;47.35;19.13;;;;;;;;;;4998955;28;20113;-78
2023/12/27 07:21:15;;;;;;;46.17;17.55;;;;;;;;;;5010748;28;20149;-79
2023/12/27 07:23:41;;;;;;;42.83;15.25;;;;;;;;;;5001344;28;20038;-78
2023/12/27 07:26:11;;;;;;;32.17;12.55;;;;;;;;;;4998018;28;20045;-78
2023/12/27 07:28:37;;;;;;;36.45;13.52;;;;;;;;;;5001895;28;20034;-79
2023/12/27 07:31:03;;;;;;;33.10;12.20;;;;;;;;;;5009355;28;20018;-80
2023/12/27 07:33:44;;;;;;;31.67;12.23;;;;;;;;;;4999788;28;20053;-77
2023/12/27 07:36:10;;;;;;;29.45;12.98;;;;;;;;;;4991750;28;20572;-77
2023/12/27 07:38:36;;;;;;;36.63;14.68;;;;;;;;;;4999675;28;20077;-79
2023/12/27 07:41:04;;;;;;;36.40;10.93;;;;;;;;;;5001809;28;20025;-77
2023/12/27 07:43:30;;;;;;;17.65;6.72;;;;;;;;;;5014363;28;20143;-75
2023/12/27 07:45:56;;;;;;;17.25;6.82;;;;;;;;;;5024868;28;20029;-77
2023/12/27 07:48:23;;;;;;;25.95;9.48;;;;;;;;;;5002410;28;20040;-79
2023/12/27 07:50:50;;;;;;;24.73;9.98;;;;;;;;;;5003515;28;20640;-79
2023/12/27 07:53:16;;;;;;;23.65;9.25;;;;;;;;;;5004211;28;20034;-79
2023/12/27 07:55:42;;;;;;;21.67;9.20;;;;;;;;;;5006521;28;20061;-80
2023/12/27 07:58:08;;;;;;;22.85;10.68;;;;;;;;;;4999684;28;20057;-79
2023/12/27 08:00:35;;;;;;;27.23;9.75;;;;;;;;;;5002608;28;20485;-81
2023/12/27 08:03:04;;;;;;;27.50;9.85;;;;;;;;;;4999853;28;20030;-79
2023/12/27 08:05:30;;;;;;;23.13;8.50;;;;;;;;;;5004674;28;20038;-78
2023/12/27 08:07:56;;;;;;;22.77;7.97;;;;;;;;;;4997300;28;20025;-80
2023/12/27 08:10:22;;;;;;;14.02;6.60;;;;;;;;;;5005807;28;20021;-80
2023/12/27 08:12:48;;;;;;;13.13;5.72;;;;;;;;;;5006849;28;20582;-78
2023/12/27 08:15:14;;;;;;;8.93;4.35;;;;;;;;;;5007925;28;20468;-81
2023/12/27 08:17:40;;;;;;;7.70;4.10;;;;;;;;;;5011934;28;20406;-80
2023/12/27 08:20:06;;;;;;;6.97;3.33;;;;;;;;;;4999651;28;20025;-78
2023/12/27 08:22:32;;;;;;;6.40;3.80;;;;;;;;;;5006594;28;20110;-77
2023/12/27 08:24:58;;;;;;;7.63;3.92;;;;;;;;;;5002119;28;20037;-78
2023/12/27 08:27:24;;;;;;;13.07;5.30;;;;;;;;;;5009107;28;20052;-79
2023/12/27 08:29:49;;;;;;;6.18;3.88;;;;;;;;;;5002845;28;20108;-79
2023/12/27 08:32:15;;;;;;;8.15;4.53;;;;;;;;;;5011618;28;20037;-79
2023/12/27 08:34:41;;;;;;;10.10;3.70;;;;;;;;;;5005592;28;20026;-78
2023/12/27 08:37:07;;;;;;;9.38;3.55;;;;;;;;;;5007131;28;20685;-80
2023/12/27 08:39:33;;;;;;;7.80;3.25;;;;;;;;;;5004739;28;20053;-79
2023/12/27 08:42:01;;;;;;;7.15;4.18;;;;;;;;;;5008801;28;20422;-80
2023/12/27 08:44:27;;;;;;;7.70;3.63;;;;;;;;;;4991955;28;20406;-79
2023/12/27 08:46:53;;;;;;;4.95;3.35;;;;;;;;;;4999041;28;21778;-80
2023/12/27 08:49:19;;;;;;;6.28;2.90;;;;;;;;;;5007146;28;20470;-79
2023/12/27 08:51:44;;;;;;;6.32;3.42;;;;;;;;;;4999026;28;20529;-79
2023/12/27 08:54:11;;;;;;;7.57;2.95;;;;;;;;;;5002827;28;20478;-80
2023/12/27 08:56:37;;;;;;;5.80;3.25;;;;;;;;;;5006264;28;20029;-80
2023/12/27 08:59:03;;;;;;;6.68;3.85;;;;;;;;;;4998062;28;20022;-77
2023/12/27 09:01:31;;;;;;;9.95;4.90;;;;;;;;;;5008333;28;20030;-80
2023/12/27 09:03:57;;;;;;;12.95;5.03;;;;;;;;;;5000315;28;20034;-81
2023/12/27 09:06:23;;;;;;;14.40;5.78;;;;;;;;;;4994846;28;20406;-82
2023/12/27 09:08:49;;;;;;;13.40;5.07;;;;;;;;;;4999732;28;20026;-82
2023/12/27 09:11:18;;;;;;;12.25;5.20;;;;;;;;;;5004173;28;20052;-80
2023/12/27 09:13:44;;;;;;;11.02;4.60;;;;;;;;;;4997748;28;20406;-81
2023/12/27 09:16:10;;;;;;;10.10;4.70;;;;;;;;;;5005854;28;20036;-82
2023/12/27 09:18:36;;;;;;;8.73;4.53;;;;;;;;;;5004400;28;20124;-81
2023/12/27 09:21:02;;;;;;;6.80;3.80;;;;;;;;;;5003303;28;20053;-81
2023/12/27 09:23:28;;;;;;;6.38;3.35;;;;;;;;;;4994869;28;20026;-80
2023/12/27 09:25:54;;;;;;;6.75;3.75;;;;;;;;;;5003987;28;20036;-80
2023/12/27 09:28:22;;;;;;;8.27;3.20;;;;;;;;;;4994140;28;20034;-81
2023/12/27 09:30:47;;;;;;;10.90;3.92;;;;;;;;;;5003642;28;20124;-81
2023/12/27 09:33:13;;;;;;;7.22;3.80;;;;;;;;;;4998731;28;21189;-82
2023/12/27 09:35:40;;;;;;;5.32;3.00;;;;;;;;;;5004530;28;20044;-82
2023/12/27 09:38:06;;;;;;;5.00;3.05;;;;;;;;;;4997710;28;20014;-80
2023/12/27 09:40:32;;;;;;;6.25;3.05;;;;;;;;;;5001745;28;20033;-80
2023/12/27 09:43:27;;;;;;;6.70;2.72;;;;;;;;;;5000690;28;20040;-81
2023/12/27 09:45:53;;;;;;;4.53;2.25;;;;;;;;;;5005100;28;20026;-81
2023/12/27 09:48:20;;;;;;;6.05;2.55;;;;;;;;;;5006977;28;20125;-80
2023/12/27 09:50:47;;;;;;;8.13;2.65;;;;;;;;;;5012886;28;20088;-79
2023/12/27 09:53:15;;;;;;;5.90;2.33;;;;;;;;;;5022294;28;20014;-79
2023/12/27 09:55:41;;;;;;;4.45;2.15;;;;;;;;;;5013576;28;20033;-80
2023/12/27 09:58:07;;;;;;;3.95;2.20;;;;;;;;;;5016490;28;20038;-78
2023/12/27 10:00:33;;;;;;;6.15;2.00;;;;;;;;;;5014414;28;20034;-83
2023/12/27 10:03:00;;;;;;;4.95;1.95;;;;;;;;;;5000996;28;20509;-83
2023/12/27 10:05:39;;;;;;;4.25;1.80;;;;;;;;;;5006721;28;20487;-83
2023/12/27 10:08:05;;;;;;;4.15;1.90;;;;;;;;;;5003646;28;20018;-80
2023/12/27 10:10:33;;;;;;;4.43;2.35;;;;;;;;;;5009702;28;20046;-82
2023/12/27 10:13:02;;;;;;;11.48;1.75;;;;;;;;;;5004999;28;20026;-82
2023/12/27 10:15:29;;;;;;;6.03;2.13;;;;;;;;;;5011564;28;20052;-81
2023/12/27 10:17:55;;;;;;;3.10;1.65;;;;;;;;;;5008761;28;20034;-82
2023/12/27 10:20:50;;;;;;;5.18;1.98;;;;;;;;;;5002739;28;20029;-81
2023/12/27 10:23:16;;;;;;;3.33;1.42;;;;;;;;;;5001568;28;20042;-81
2023/12/27 10:25:43;;;;;;;8.63;1.73;;;;;;;;;;5011069;28;20068;-82
2023/12/27 10:28:10;;;;;;;9.40;1.90;;;;;;;;;;5002082;28;20030;-82
2023/12/27 10:30:36;;;;;;;5.68;1.45;;;;;;;;;;5005122;28;20045;-82
2023/12/27 10:33:02;;;;;;;5.50;1.33;;;;;;;;;;5003855;28;20033;-80
2023/12/27 10:35:29;;;;;;;3.53;1.60;;;;;;;;;;4998352;28;20037;-80
2023/12/27 10:37:59;;;;;;;3.22;1.02;;;;;;;;;;5001049;28;20109;-80
2023/12/27 10:40:25;;;;;;;6.30;1.20;;;;;;;;;;5004698;28;20037;-82
2023/12/27 10:42:51;;;;;;;3.50;1.65;;;;;;;;;;5004885;28;20101;-82
2023/12/27 10:45:17;;;;;;;3.25;0.80;;;;;;;;;;4988957;28;20155;-81
2023/12/27 10:47:45;;;;;;;3.47;1.52;;;;;;;;;;4998859;28;20053;-80
2023/12/27 10:50:12;;;;;;;2.90;1.13;;;;;;;;;;5000199;28;20026;-81
2023/12/27 10:52:41;;;;;;;5.53;1.25;;;;;;;;;;5000421;28;20100;-81
2023/12/27 10:55:09;;;;;;;13.02;1.98;;;;;;;;;;5006745;28;20018;-79
2023/12/27 10:57:36;;;;;;;2.60;1.35;;;;;;;;;;5004586;28;20113;-82
2023/12/27 11:00:08;;;;;;;4.40;1.17;;;;;;;;;;4995633;28;21292;-80
2023/12/27 11:02:36;;;;;;;5.43;1.58;;;;;;;;;;4996306;28;20022;-80
2023/12/27 11:05:03;;;;;;;4.03;1.10;;;;;;;;;;5006414;28;20413;-81
2023/12/27 11:07:32;;;;;;;1.90;0.95;;;9.00;99.90;;;;;;4995161;28;20034;-80
2023/12/27 11:09:59;;;;;;;5.53;1.38;;;;;;;;;;5003157;28;20029;-81
2023/12/27 11:12:28;;;;;;;2.45;1.17;;;10.10;99.90;;;;;;4996507;28;20040;-83
2023/12/27 11:14:55;;;;;;;1.65;0.60;;;;;;;;;;4997077;28;20057;-79
2023/12/27 11:17:22;;;;;;;1.95;0.90;;;;;;;;;;5004524;28;20088;-80
2023/12/27 11:19:51;;;;;;;3.58;0.90;;;;;;;;;;5003202;28;20048;-81
2023/12/27 11:22:17;;;;;;;2.10;1.05;;;;;;;;;;5004828;28;20556;-80
2023/12/27 11:24:44;;;;;;;3.08;1.20;;;;;;;;;;4999154;28;20046;-80
2023/12/27 11:27:10;;;;;;;2.03;1.10;;;;;;;;;;5001483;28;20032;-80
2023/12/27 11:29:37;;;;;;;3.20;0.88;;;;;;;;;;5002623;28;20022;-79
2023/12/27 11:32:04;;;;;;;3.30;0.82;;;;;;;;;;5004163;28;20517;-81
2023/12/27 11:34:30;;;;;;;1.73;0.80;;;;;;;;;;5002986;28;20037;-80
2023/12/27 11:36:56;;;;;;;2.75;1.15;;;;;;;;;;5025600;28;20037;-80
2023/12/27 11:39:28;;;;;;;3.20;0.80;;;;;;;;;;5011883;28;20506;-81
2023/12/27 11:41:54;;;;;;;4.25;0.98;;;;;;;;;;5006487;28;20041;-81
2023/12/27 11:44:20;;;;;;;3.05;1.25;;;;;;;;;;5003460;28;20141;-81
2023/12/27 11:46:47;;;;;;;2.70;1.00;;;;;;;;;;5002301;28;20494;-80
2023/12/27 11:49:19;;;;;;;2.75;0.85;;;;;;;;;;5003527;28;20113;-81
2023/12/27 11:51:45;;;;;;;5.25;1.35;;;;;;;;;;5007242;28;20413;-79
2023/12/27 11:54:20;;;;;;;4.18;1.17;;;;;;;;;;5001527;28;20030;-80
2023/12/27 11:56:47;;;;;;;1.88;0.60;;;;;;;;;;4997615;28;20038;-79
2023/12/27 11:59:13;;;;;;;6.47;1.10;;;;;;;;;;5002471;28;20033;-80
2023/12/27 12:01:40;;;;;;;4.93;1.20;;;;;;;;;;4998023;28;20034;-78
2023/12/27 12:04:15;;;;;;;2.28;1.25;;;;;;;;;;4999864;28;20466;-79
2023/12/27 12:06:44;;;;;;;5.07;0.90;;;;;;;;;;5002781;28;20108;-80
2023/12/27 12:09:10;;;;;;;2.85;0.80;;;;;;;;;;5008128;28;20036;-81
2023/12/27 12:11:36;;;;;;;4.70;0.93;;;;;;;;;;5007114;28;20049;-82
2023/12/27 12:14:02;;;;;;;2.97;0.88;;;;;;;;;;5001069;28;20095;-79
2023/12/27 12:16:31;;;;;;;1.13;0.50;;;;;;;;;;5005007;28;20061;-79
2023/12/27 12:18:59;;;;;;;2.58;0.90;;;;;;;;;;5000017;28;20466;-79
2023/12/27 12:21:26;;;;;;;4.65;0.65;;;;;;;;;;5002518;28;20036;-81
2023/12/27 12:23:52;;;;;;;4.78;0.80;;;;;;;;;;5006032;28;20084;-81
2023/12/27 12:26:18;;;;;;;1.73;0.52;;;;;;;;;;5008602;28;20089;-81
2023/12/27 12:28:55;;;;;;;2.50;1.00;;;;;;;;;;5000704;28;20034;-79
2023/12/27 12:31:21;;;;;;;8.85;0.88;;;;;;;;;;5001947;28;20050;-79
2023/12/27 12:33:47;;;;;;;8.57;0.77;;;;;;;;;;4988686;28;20072;-79
2023/12/27 12:36:13;;;;;;;5.10;0.70;;;;;;;;;;5003116;28;20030;-80
2023/12/27 12:38:39;;;;;;;1.75;0.70;;;;;;;;;;5008793;28;20034;-79
2023/12/27 12:41:05;;;;;;;1.45;0.75;;;;;;;;;;5003794;28;20042;-79
2023/12/27 12:43:31;;;;;;;1.45;0.43;;;;;;;;;;5017395;28;20038;-78
2023/12/27 12:45:58;;;;;;;2.45;1.05;;;10.50;99.90;;;;;;5022440;28;20033;-79
2023/12/27 12:48:26;;;;;;;2.17;0.50;;;;;;;;;;5011706;28;20018;-78
2023/12/27 12:51:10;;;;;;;3.33;0.90;;;;;;;;;;5012211;28;20120;-81
2023/12/27 12:53:36;;;;;;;3.95;0.77;;;;;;;;;;4999665;28;20108;-82
2023/12/27 12:56:02;;;;;;;1.38;0.60;;;;;;;;;;5009581;28;20062;-80
2023/12/27 12:58:28;;;;;;;2.53;0.73;;;;;;;;;;4994682;28;20041;-81
2023/12/27 13:00:54;;;;;;;3.95;0.80;;;;;;;;;;5007929;28;20607;-81
2023/12/27 13:03:20;;;;;;;1.48;0.47;;;;;;;;;;4990452;28;20034;-82
2023/12/27 13:05:48;;;;;;;1.73;0.60;;;;;;;;;;5007014;28;20030;-82
2023/12/27 13:08:15;;;;;;;4.97;1.40;;;;;;;;;;5005218;28;20033;-79
2023/12/27 13:10:41;;;;;;;10.95;0.82;;;;;;;;;;5010848;28;20643;-81
2023/12/27 13:13:07;;;;;;;2.22;0.70;;;;;;;;;;4999632;28;20030;-80
2023/12/27 13:15:33;;;;;;;2.60;0.55;;;;;;;;;;4994310;28;20030;-80
2023/12/27 13:18:08;;;;;;;0.85;0.50;;;;;;;;;;4999457;28;20086;-79
2023/12/27 13:20:34;;;;;;;5.47;0.60;;;;;;;;;;5004204;28;20036;-80
2023/12/27 13:23:00;;;;;;;2.88;0.60;;;;;;;;;;5000992;28;20493;-82
2023/12/27 13:25:26;;;;;;;3.83;0.80;;;;;;;;;;5005767;28;20049;-80
2023/12/27 13:27:52;;;;;;;3.17;0.80;;;;;;;;;;4991061;28;20177;-81
2023/12/27 13:30:18;;;;;;;2.97;0.90;;;;;;;;;;5001668;28;20069;-81
2023/12/27 13:32:44;;;;;;;1.63;0.50;;;;;;;;;;5008085;28;20050;-80
2023/12/27 13:35:10;;;;;;;2.17;0.60;;;;;;;;;;5000236;28;20048;-79
2023/12/27 13:37:36;;;;;;;0.82;0.50;;;;;;;;;;5001507;28;20372;-80
2023/12/27 13:40:03;;;;;;;1.60;0.55;;;;;;;;;;5004443;28;20138;-80
2023/12/27 13:42:30;;;;;;;2.15;0.60;;;;;;;;;;4990213;28;20516;-79
2023/12/27 13:44:56;;;;;;;6.20;1.02;;;;;;;;;;5008598;28;20172;-80
2023/12/27 13:47:22;;;;;;;2.17;0.65;;;;;;;;;;5009541;28;20513;-80
2023/12/27 13:49:50;;;;;;;4.03;1.27;;;;;;;;;;5000159;28;20034;-80
2023/12/27 13:52:16;;;;;;;1.95;0.80;;;;;;;;;;5010914;28;20021;-82
2023/12/27 13:54:42;;;;;;;1.63;0.75;;;;;;;;;;5003664;28;20418;-80
2023/12/27 13:57:08;;;;;;;4.78;0.82;;;;;;;;;;5007145;28;20041;-80
2023/12/27 13:59:34;;;;;;;1.45;0.40;;;;;;;;;;4998626;28;20026;-81
2023/12/27 14:02:00;;;;;;;2.15;0.80;;;;;;;;;;4990622;28;20032;-79
2023/12/27 14:04:26;;;;;;;6.32;1.05;;;;;;;;;;5001681;28;20133;-79
2023/12/27 14:06:52;;;;;;;3.20;1.23;;;;;;;;;;5008540;28;20073;-78
2023/12/27 14:09:18;;;;;;;3.47;1.00;;;;;;;;;;5004725;28;20691;-80
2023/12/27 14:11:44;;;;;;;4.32;1.00;;;;;;;;;;4996237;28;20040;-79
2023/12/27 14:14:13;;;;;;;6.20;0.80;;;;;;;;;;5002646;28;20022;-79
2023/12/27 14:16:45;;;;;;;1.75;0.77;;;;;;;;;;5002492;28;20038;-80
2023/12/27 14:19:12;;;;;;;1.05;0.68;;;;;;;;;;5002299;28;20022;-81
2023/12/27 14:21:38;;;;;;;0.88;0.60;;;;;;;;;;5002880;28;20061;-80
2023/12/27 14:24:04;;;;;;;1.95;0.75;;;;;;;;;;4992775;28;20037;-82
2023/12/27 14:26:30;;;;;;;2.55;0.80;;;;;;;;;;5000769;28;20038;-81
2023/12/27 14:28:59;;;;;;;3.17;0.73;;;;;;;;;;4992077;28;20022;-79
2023/12/27 14:31:26;;;;;;;4.55;0.80;;;;;;;;;;4993351;28;20769;-81
2023/12/27 14:33:52;;;;;;;1.48;0.60;;;;;;;;;;4999256;28;20100;-81
2023/12/27 14:36:18;;;;;;;7.43;1.30;;;;;;;;;;5001380;28;20558;-81
2023/12/27 14:38:45;;;;;;;5.80;1.13;;;;;;;;;;4998088;28;20030;-80